Terminal Aerodrome Forecast
Issued by NWS

Home | Current Version | Previous Version | Text Only | Print | Product List | Glossary On
Versions: 1 2 3 4 5 6 7 8 9 10 11 12
000
FTUS41 KBTV 241720
TAFMPV
TAF
KMPV 241720Z 2418/2518 28010G18KT P6SM VCSH SCT070 BKN120
     FM250100 21004KT P6SM FEW120 SCT250
     FM251200 20005KT P6SM VCSH BKN050 BKN080
     FM251500 23008KT P6SM VCSH SCT035 OVC060=

USA.gov is the U.S. government's official web portal to all federal, state and local government web resources and services.